This is the latest recevied weather packets stored in our database for station/object PY5KT-13. If no packets are shown the sender has not sent any weather packets the latest 10 day(s).
| Time | Temp. | Humidity | Pressure | Rain* | Wind** | Luminosity | Snow |
|---|---|---|---|---|---|---|---|
| 1777910190 | 16.11° C | 96% | 1022.5 hPa | 0 mm | - | 79 W/m² | - |
| 1777909888 | 16.11° C | 96% | 1022.4 hPa | 0 mm | - | 88 W/m² | - |
| 1777909587 | 16.11° C | 95% | 1022.5 hPa | 0 mm | - | 94 W/m² | - |
| 1777909285 | 16.11° C | 95% | 1022.7 hPa | 0 mm | - | 94 W/m² | - |
| 1777908984 | 16.11° C | 95% | 1022.7 hPa | 0 mm | - | 102 W/m² | - |
| 1777908682 | 16.67° C | 95% | 1022.6 hPa | 0 mm | - | 108 W/m² | - |
| 1777908380 | 16.11° C | 96% | 1022.5 hPa | 0 mm | - | 107 W/m² | - |
| 1777908079 | 16.11° C | 96% | 1022.5 hPa | 0 mm | - | 109 W/m² | - |
| 1777907777 | 16.11° C | 96% | 1023 hPa | 0 mm | - | 93 W/m² | - |
| 1777907476 | 15.56° C | 95% | 1023.1 hPa | 0 mm | - | 83 W/m² | - |
| 1777907174 | 16.11° C | 93% | 1023.3 hPa | 0 mm | - | 72 W/m² | - |
| 1777906872 | 16.11° C | 93% | 1023.3 hPa | 0 mm | - | 74 W/m² | - |
| 1777906570 | 16.11° C | 91% | 1023.3 hPa | 0 mm | - | 90 W/m² | - |
| 1777906268 | 16.67° C | 90% | 1023.2 hPa | 0 mm | - | 135 W/m² | - |
| 1777905966 | 16.67° C | 92% | 1023.3 hPa | 0 mm | - | 139 W/m² | - |
| 1777905664 | 16.11° C | 91% | 1023.4 hPa | 0 mm | - | 141 W/m² | - |
| 1777905363 | 16.67° C | 92% | 1023.4 hPa | 0.25 mm | - | 125 W/m² | - |
| 1777905061 | 16.67° C | 92% | 1023.3 hPa | 0.25 mm | - | 125 W/m² | - |
| 1777904759 | 16.11° C | 94% | 1023.4 hPa | 0.25 mm | - | 129 W/m² | - |
| 1777904457 | 16.11° C | 94% | 1023.4 hPa | 0.25 mm | - | 127 W/m² | - |
| 1777904155 | 16.11° C | 95% | 1023.6 hPa | 0.25 mm | - | 97 W/m² | - |
| 1777903853 | 16.11° C | 95% | 1023.6 hPa | 0.25 mm | - | 105 W/m² | - |
| 1777903551 | 16.11° C | 94% | 1023.7 hPa | 0.25 mm | - | 114 W/m² | - |
| 1777903249 | 16.11° C | 94% | 1023.8 hPa | 0.25 mm | - | 126 W/m² | - |
| 1777902947 | 16.11° C | 94% | 1023.7 hPa | 0.25 mm | - | 126 W/m² | - |
* Rain latest hour (hover to see other rain measurements)
** Current wind speed in m/s (hover to see current wind gust speed)